Flight Track Log - Related Links

Times and Time Zones

All times are in EDT time to prevent confusion due to time zone crossing. See the ASQ5046 flight status page for this flight to view local times or setup timezone preferences in your user account.

Time Position Orientation Groundspeed Altitude Reporting Facility
EDT Latitude Longitude Course Direction KTS MPH feet Rate Location/Type
Mon 08:02:17 AM 32.5500 -84.8833 56° Northeast 186 214 3,200  Level Atlanta TRACON
Mon 08:03:17 AM 32.6000 -84.8167 48° Northeast 264 304 5,700 2,650 Climbing Atlanta TRACON
Mon 08:04:17 AM 32.6333 -84.7333 65° Northeast 286 329 8,500 2,200 Climbing Atlanta TRACON
Mon 08:05:17 AM 32.6833 -84.6500 55° Northeast 330 380 10,100 750 Climbing Atlanta TRACON
Mon 08:06:17 AM 32.7333 -84.5500 59° Northeast 393 452 10,000 -50 Descending Atlanta TRACON
Mon 08:07:00 AM 32.8143 -84.3710 56° Northeast  Level FlightAware Approximate
Mon 08:07:17 AM 32.8000 -84.4333 56° Northeast 392 451 10,000  Level Atlanta TRACON
Mon 08:08:11 AM 32.8500 -84.3333 59° Northeast 394 453 10,100 -50 Climbing Atlanta TRACON
Mon 08:09:17 AM 32.9000 -84.2167 63° Northeast 396 456 9,900 -95 Descending Atlanta TRACON
Mon 08:10:17 AM 32.9833 -84.1500 34° Northeast 348 400 9,900 50 Level Atlanta TRACON
Mon 08:11:17 AM 33.0667 -84.1167 19° North 276 318 10,000 50 Climbing Atlanta TRACON
Mon 08:12:17 AM 33.1333 -84.0833 23° Northeast 278 320 10,000 50 Level Atlanta TRACON
Mon 08:13:17 AM 33.2000 -84.0500 23° Northeast 281 323 10,100 -100 Climbing Atlanta TRACON
Mon 08:14:17 AM 33.2833 -84.0167 18° North 275 316 9,800 -1,000 Descending Atlanta TRACON
Mon 08:15:17 AM 33.3500 -84.0000 12° North 264 304 8,100 -1,250 Descending Atlanta TRACON
Mon 08:16:17 AM 33.4167 -84.0500 328° Northwest 262 302 7,300 -1,300 Descending Atlanta TRACON
Mon 08:17:17 AM 33.4833 -84.0667 348° North 251 289 5,500 -1,150 Descending Atlanta TRACON
Mon 08:18:17 AM 33.5500 -84.0833 348° North 231 266 5,000 -645 Descending Atlanta TRACON
Mon 08:19:18 AM 33.6000 -84.0833 360° North 190 219 4,200 -450 Descending Atlanta TRACON
Mon 08:20:17 AM 33.6167 -84.1333 292° West 187 215 4,100 -50 Descending Atlanta TRACON
Mon 08:21:18 AM 33.6167 -84.2000 270° West 185 213 4,100 -200 Level Atlanta TRACON
Mon 08:22:17 AM 33.6167 -84.2667 270° West 187 215 3,700 -750 Descending Atlanta TRACON
Mon 08:23:18 AM 33.6167 -84.3167 270° West 185 213 2,600 -950 Descending Atlanta TRACON
Mon 08:24:17 AM 33.6167 -84.3833 270° West 145 167 1,800 -814 Descending Atlanta TRACON
Mon 08:26:00 AM 33.6367 -84.4279 270° West  Level Estimated
Mon 08:33:00 AM 33.6367 -84.4279 64° Northeast  Level Estimated
Mon 08:34:00 AM 33.6367 -84.4279 64° Northeast  Level Estimated

Login

Don't have an account? Register now (free) for customized features, flight alerts, and more!